createdAt,value
2024-01-05T00:02:09.755Z,3.40
2024-01-05T00:04:57.018Z,3.10
2024-01-05T00:07:47.697Z,4.45
2024-01-05T00:10:35.891Z,2.50
2024-01-05T00:13:21.486Z,3.80
2024-01-05T00:16:07.695Z,2.17
2024-01-05T00:18:53.496Z,5.55
2024-01-05T00:21:39.418Z,3.00
2024-01-05T00:24:24.831Z,3.15
2024-01-05T00:27:10.440Z,2.80
2024-01-05T00:29:57.949Z,4.55
2024-01-05T00:32:43.537Z,3.28
2024-01-05T00:35:29.739Z,4.22
2024-01-05T00:38:15.259Z,3.38
2024-01-05T00:41:00.950Z,2.80
2024-01-05T00:43:46.552Z,4.20
2024-01-05T00:46:32.039Z,3.33
2024-01-05T00:49:17.977Z,3.58
2024-01-05T00:52:03.668Z,4.32
2024-01-05T00:54:49.568Z,6.65
2024-01-05T00:57:38.251Z,4.65
2024-01-05T01:00:25.993Z,5.72
2024-01-05T01:03:12.133Z,3.97
2024-01-05T01:05:57.815Z,5.75
2024-01-05T01:08:43.461Z,4.95
2024-01-05T01:11:29.252Z,4.93
2024-01-05T01:14:17.690Z,6.65
2024-01-05T01:17:03.405Z,7.13
2024-01-05T01:19:50.296Z,6.15
2024-01-05T01:22:35.795Z,5.55
2024-01-05T01:25:21.331Z,4.68
2024-01-05T01:28:07.077Z,3.35
2024-01-05T01:30:53.047Z,4.22
2024-01-05T01:33:40.050Z,4.45
2024-01-05T01:36:28.516Z,3.58
2024-01-05T01:39:14.616Z,4.38
2024-01-05T01:42:02.448Z,3.65
2024-01-05T01:44:48.449Z,6.03
2024-01-05T01:47:34.464Z,6.07
2024-01-05T01:50:25.680Z,5.43
2024-01-05T01:53:14.623Z,2.70
2024-01-05T01:56:00.982Z,4.30
2024-01-05T01:58:46.772Z,4.40
2024-01-05T02:01:32.766Z,4.78
2024-01-05T02:04:20.880Z,5.28
2024-01-05T02:07:08.169Z,3.28
2024-01-05T02:09:53.672Z,2.78
2024-01-05T02:12:39.169Z,3.38
2024-01-05T02:15:25.279Z,3.38
2024-01-05T02:18:15.508Z,3.28
2024-01-05T02:21:07.787Z,2.85
2024-01-05T02:23:54.079Z,1.65
2024-01-05T02:26:40.941Z,2.22
2024-01-05T02:29:27.053Z,9.10
2024-01-05T02:32:12.916Z,2.67
2024-01-05T02:35:01.042Z,1.98
2024-01-05T02:37:46.838Z,2.47
2024-01-05T02:40:32.341Z,3.83
2024-01-05T02:43:17.989Z,4.97
2024-01-05T02:46:03.657Z,2.10
2024-01-05T02:48:49.877Z,2.85
2024-01-05T02:51:35.972Z,2.17
2024-01-05T02:54:21.522Z,2.42
2024-01-05T02:57:07.427Z,2.63
2024-01-05T02:59:53.141Z,3.33
2024-01-05T03:02:38.680Z,2.13
2024-01-05T03:05:24.323Z,3.83
2024-01-05T03:08:10.442Z,5.88
2024-01-05T03:10:55.955Z,3.33
2024-01-05T03:13:41.591Z,2.67
2024-01-05T03:16:27.592Z,3.42
2024-01-05T03:19:13.527Z,4.60
2024-01-05T03:22:00.527Z,4.20
2024-01-05T03:24:45.935Z,4.50
2024-01-05T03:27:31.458Z,3.85
2024-01-05T03:30:17.153Z,2.67
2024-01-05T03:33:03.476Z,4.03
2024-01-05T03:35:49.232Z,5.90
2024-01-05T03:38:34.731Z,3.70
2024-01-05T03:41:20.262Z,3.03
2024-01-05T03:44:05.640Z,3.55
2024-01-05T03:46:52.424Z,4.45
2024-01-05T03:49:38.120Z,5.15
2024-01-05T03:52:25.721Z,10.93
2024-01-05T03:55:11.352Z,6.80
2024-01-05T03:57:56.968Z,9.63
2024-01-05T04:00:42.570Z,7.85
2024-01-05T04:03:28.563Z,4.90
2024-01-05T04:06:21.224Z,6.95
2024-01-05T04:09:11.132Z,9.93
2024-01-05T04:11:57.937Z,14.10
2024-01-05T04:14:43.719Z,9.57
2024-01-05T04:17:29.202Z,14.77
2024-01-05T04:20:14.732Z,15.25
2024-01-05T04:23:01.808Z,14.40
2024-01-05T04:25:48.252Z,22.92
2024-01-05T04:28:36.219Z,20.92
2024-01-05T04:31:22.175Z,21.10
2024-01-05T04:34:08.644Z,23.10
2024-01-05T04:36:54.610Z,32.92
2024-01-05T04:39:41.433Z,25.50
2024-01-05T04:42:28.294Z,22.63
2024-01-05T04:45:14.959Z,25.10
2024-01-05T04:48:01.110Z,21.00
2024-01-05T04:50:46.990Z,25.02
2024-01-05T04:53:32.982Z,18.63
2024-01-05T04:56:18.725Z,20.70
2024-01-05T04:59:06.650Z,22.60
2024-01-05T05:01:52.362Z,20.65
2024-01-05T05:04:38.019Z,18.77
2024-01-05T05:07:23.656Z,18.92
2024-01-05T05:10:09.873Z,15.18
2024-01-05T05:12:55.746Z,18.83
2024-01-05T05:15:41.282Z,21.42
2024-01-05T05:18:27.756Z,23.00
2024-01-05T05:21:13.979Z,19.88
2024-01-05T05:24:00.303Z,20.00
2024-01-05T05:26:46.209Z,22.00
2024-01-05T05:29:31.580Z,24.80
2024-01-05T05:32:17.362Z,24.70
2024-01-05T05:35:02.898Z,19.42
2024-01-05T05:37:48.554Z,20.48
2024-01-05T05:40:34.299Z,18.08
2024-01-05T05:43:20.008Z,15.73
2024-01-05T05:46:05.933Z,15.57
2024-01-05T05:48:54.212Z,22.05
2024-01-05T05:51:39.973Z,19.60
2024-01-05T05:54:25.923Z,22.20
2024-01-05T05:57:13.242Z,26.30
2024-01-05T06:00:01.343Z,30.75
2024-01-05T06:02:47.366Z,27.48
2024-01-05T06:05:32.980Z,24.65
2024-01-05T06:08:18.512Z,25.88
2024-01-05T06:11:05.319Z,23.83
2024-01-05T06:13:51.000Z,17.77
2024-01-05T06:16:36.589Z,14.40
2024-01-05T06:19:25.560Z,12.75
2024-01-05T06:22:11.325Z,12.82
2024-01-05T06:24:57.647Z,15.20
2024-01-05T06:27:43.579Z,15.68
2024-01-05T06:30:29.125Z,17.08
2024-01-05T06:33:15.106Z,17.60
2024-01-05T06:36:01.064Z,15.45
2024-01-05T06:38:49.234Z,12.43
2024-01-05T06:41:34.757Z,12.18
2024-01-05T06:44:20.497Z,11.75
2024-01-05T06:47:08.645Z,12.32
2024-01-05T06:49:54.556Z,14.88
2024-01-05T06:52:40.446Z,14.63
2024-01-05T06:55:25.998Z,11.73
2024-01-05T06:58:11.730Z,10.70
2024-01-05T07:00:58.076Z,13.30
2024-01-05T07:03:44.339Z,16.65
2024-01-05T07:06:30.082Z,13.27
2024-01-05T07:09:16.128Z,17.52
2024-01-05T07:12:02.292Z,18.95
2024-01-05T07:14:51.280Z,21.55
2024-01-05T07:17:37.132Z,26.05
2024-01-05T07:20:23.251Z,32.45
2024-01-05T07:23:08.660Z,31.83
2024-01-05T07:25:55.385Z,37.85
2024-01-05T07:28:41.743Z,33.88
2024-01-05T07:31:27.327Z,32.60
2024-01-05T07:34:13.342Z,39.30
2024-01-05T07:37:02.016Z,41.13
2024-01-05T07:39:47.722Z,44.25
2024-01-05T07:42:34.356Z,37.90
2024-01-05T07:45:21.050Z,42.15
2024-01-05T07:48:07.443Z,40.30
2024-01-05T07:50:53.531Z,40.33
2024-01-05T07:53:41.968Z,39.55
2024-01-05T07:56:27.311Z,34.35
2024-01-05T07:59:12.836Z,35.70
2024-01-05T08:01:58.370Z,30.05
2024-01-05T08:04:46.217Z,31.30
2024-01-05T08:07:32.122Z,29.75
2024-01-05T08:10:17.663Z,25.00
2024-01-05T08:13:03.168Z,25.90
2024-01-05T08:15:51.491Z,24.02
2024-01-05T08:18:38.713Z,28.35
2024-01-05T08:21:24.693Z,28.75
2024-01-05T08:24:10.884Z,24.88
2024-01-05T08:26:57.069Z,25.63
2024-01-05T08:29:42.853Z,28.33
2024-01-05T08:32:28.638Z,24.38
2024-01-05T08:35:14.607Z,26.60
2024-01-05T08:38:00.535Z,30.95
2024-01-05T08:40:46.526Z,34.03
2024-01-05T08:43:33.322Z,33.78
2024-01-05T08:46:20.036Z,42.25
2024-01-05T08:49:06.061Z,47.22
2024-01-05T08:51:51.661Z,54.38
2024-01-05T08:54:41.477Z,50.65
2024-01-05T08:57:27.445Z,38.45
2024-01-05T09:00:13.411Z,26.40
2024-01-05T09:02:59.170Z,24.08
2024-01-05T09:05:47.532Z,20.13
2024-01-05T09:08:35.499Z,17.95
2024-01-05T09:11:21.032Z,12.20
2024-01-05T09:14:08.056Z,20.30
2024-01-05T09:16:53.726Z,38.78
2024-01-05T09:19:41.821Z,38.60
2024-01-05T09:22:27.808Z,38.25
2024-01-05T09:25:13.298Z,40.65
2024-01-05T09:28:02.327Z,32.10
2024-01-05T09:30:52.775Z,34.20
2024-01-05T09:33:41.034Z,23.92
2024-01-05T09:36:27.677Z,30.10
2024-01-05T09:39:14.468Z,29.15
2024-01-05T09:42:02.449Z,27.98
2024-01-05T09:44:50.049Z,25.00
2024-01-05T09:47:38.165Z,26.00
2024-01-05T09:50:24.580Z,26.58
2024-01-05T09:53:13.110Z,22.75
2024-01-05T09:55:59.786Z,18.60
2024-01-05T09:58:46.429Z,16.45
2024-01-05T10:01:35.697Z,16.27
2024-01-05T10:04:21.939Z,15.20
2024-01-05T10:07:07.706Z,14.52
2024-01-05T10:09:55.980Z,20.15
2024-01-05T10:12:42.412Z,19.45
2024-01-05T10:15:30.600Z,16.95
2024-01-05T10:18:20.799Z,16.67
2024-01-05T10:21:12.295Z,19.65
2024-01-05T10:23:59.341Z,21.75
2024-01-05T10:26:44.957Z,19.98
2024-01-05T10:29:33.800Z,15.75
2024-01-05T10:32:25.830Z,14.80
2024-01-05T10:35:11.540Z,16.08
2024-01-05T10:38:04.935Z,15.55
2024-01-05T10:40:50.611Z,14.90
2024-01-05T10:43:38.579Z,15.48
2024-01-05T10:46:26.163Z,15.27
2024-01-05T10:49:13.740Z,16.27
2024-01-05T10:52:01.255Z,19.08
2024-01-05T10:54:53.713Z,22.92
2024-01-05T10:57:41.579Z,17.25
2024-01-05T11:00:28.622Z,17.02
2024-01-05T11:03:19.493Z,20.33
2024-01-05T11:06:12.276Z,18.25
2024-01-05T11:09:24.890Z,19.02
2024-01-05T11:13:08.449Z,19.75
2024-01-05T11:19:11.133Z,21.60
2024-01-05T11:22:11.947Z,19.98
2024-01-05T11:24:58.771Z,17.80
2024-01-05T11:27:47.905Z,20.52
2024-01-05T11:30:43.185Z,16.80
2024-01-05T11:33:48.155Z,14.00
2024-01-05T11:36:53.953Z,11.95
2024-01-05T11:39:48.703Z,12.60
2024-01-05T11:42:35.208Z,9.73
2024-01-05T11:45:48.509Z,8.93
2024-01-05T11:48:38.603Z,6.85
2024-01-05T11:51:24.978Z,7.55
2024-01-05T11:54:10.440Z,8.70
2024-01-05T11:56:59.210Z,7.30
2024-01-05T11:59:46.325Z,7.93
2024-01-05T12:02:32.912Z,6.90
2024-01-05T12:05:19.051Z,10.27
2024-01-05T12:08:05.821Z,8.85
2024-01-05T12:11:04.016Z,9.13
2024-01-05T12:13:49.909Z,10.27
2024-01-05T12:16:35.664Z,8.90
2024-01-05T12:19:24.469Z,10.57
2024-01-05T12:22:10.333Z,11.32
2024-01-05T12:24:55.757Z,7.43
2024-01-05T12:27:42.030Z,10.95
2024-01-05T12:30:28.785Z,8.50
2024-01-05T12:33:14.963Z,13.88
2024-01-05T12:36:00.859Z,9.43
2024-01-05T12:38:46.818Z,11.90
2024-01-05T12:41:32.860Z,12.15
2024-01-05T12:44:20.263Z,10.23
2024-01-05T12:47:06.460Z,12.23
2024-01-05T12:49:52.160Z,27.10
2024-01-05T12:52:39.223Z,25.60
2024-01-05T12:55:33.629Z,15.52
2024-01-05T12:58:19.471Z,12.90
2024-01-05T13:01:07.586Z,10.40
2024-01-05T13:04:02.497Z,8.43
2024-01-05T13:06:50.334Z,18.88
2024-01-05T13:09:36.386Z,19.15
2024-01-05T13:12:25.937Z,13.27
2024-01-05T13:15:11.869Z,11.07
2024-01-05T13:17:59.003Z,13.98
2024-01-05T13:20:45.152Z,13.25
2024-01-05T13:23:32.001Z,8.10
2024-01-05T13:26:17.788Z,16.83
2024-01-05T13:29:03.448Z,15.02
2024-01-05T13:31:49.049Z,12.77
2024-01-05T13:34:35.170Z,13.50
2024-01-05T13:37:25.176Z,16.27
2024-01-05T13:40:11.697Z,17.95
2024-01-05T13:42:57.415Z,13.20
2024-01-05T13:45:43.134Z,19.92
2024-01-05T13:48:29.172Z,17.73
2024-01-05T13:51:17.796Z,20.38
2024-01-05T13:54:03.620Z,10.82
2024-01-05T13:56:49.546Z,18.20
2024-01-05T13:59:37.445Z,17.08
2024-01-05T14:02:23.135Z,21.48
2024-01-05T14:05:08.970Z,20.88
2024-01-05T14:07:54.550Z,22.27
2024-01-05T14:10:40.112Z,19.67
2024-01-05T14:13:25.619Z,26.55
2024-01-05T14:16:11.082Z,21.33
2024-01-05T14:18:56.765Z,19.48
2024-01-05T14:21:42.916Z,20.25
2024-01-05T14:24:29.002Z,21.20
2024-01-05T14:27:14.701Z,20.50
2024-01-05T14:30:00.546Z,19.70
2024-01-05T14:32:46.233Z,17.20
2024-01-05T14:35:34.043Z,12.68
2024-01-05T14:38:20.068Z,10.77
2024-01-05T14:41:05.920Z,19.08
2024-01-05T14:43:51.764Z,18.75
2024-01-05T14:46:39.955Z,23.70
2024-01-05T14:49:26.295Z,16.98
2024-01-05T14:52:22.299Z,13.93
2024-01-05T14:55:10.880Z,16.60
2024-01-05T14:58:02.257Z,17.45
2024-01-05T15:00:51.165Z,20.50
2024-01-05T15:03:40.843Z,23.13
2024-01-05T15:06:27.646Z,25.85
2024-01-05T15:09:15.258Z,19.40
2024-01-05T15:12:10.791Z,29.88
2024-01-05T15:14:56.419Z,35.13
2024-01-05T15:17:42.242Z,23.05
2024-01-05T15:20:28.305Z,22.40
2024-01-05T15:23:13.960Z,19.00
2024-01-05T15:25:59.762Z,19.05
2024-01-05T15:28:45.241Z,20.15
2024-01-05T15:31:31.123Z,25.60
2024-01-05T15:34:17.101Z,17.55
2024-01-05T15:37:03.166Z,17.05
2024-01-05T15:39:49.001Z,22.05
2024-01-05T15:42:35.392Z,22.92
2024-01-05T15:45:21.289Z,28.35
2024-01-05T15:48:07.969Z,31.58
2024-01-05T15:50:54.206Z,45.30
2024-01-05T15:53:41.584Z,38.70
2024-01-05T15:56:29.394Z,24.80
2024-01-05T15:59:14.941Z,15.80
2024-01-05T16:02:01.139Z,26.88
2024-01-05T16:04:47.617Z,22.80
2024-01-05T16:07:35.328Z,20.92
2024-01-05T16:10:20.974Z,16.95
2024-01-05T16:13:08.234Z,18.33
2024-01-05T16:15:54.208Z,24.95
2024-01-05T16:18:44.214Z,21.85
2024-01-05T16:21:30.528Z,27.20
2024-01-05T16:24:16.746Z,19.10
2024-01-05T16:27:02.772Z,19.88
2024-01-05T16:29:48.206Z,19.98
2024-01-05T16:32:34.846Z,25.58
2024-01-05T16:35:20.821Z,23.17
2024-01-05T16:38:10.417Z,27.77
2024-01-05T16:40:56.173Z,14.82
2024-01-05T16:43:42.257Z,23.20
2024-01-05T16:46:31.420Z,15.90
2024-01-05T16:49:17.588Z,19.02
2024-01-05T16:52:03.612Z,19.85
2024-01-05T16:54:49.428Z,23.85
2024-01-05T16:57:35.537Z,27.98
2024-01-05T17:00:22.315Z,29.35
2024-01-05T17:03:08.772Z,22.88
2024-01-05T17:05:54.707Z,24.98
2024-01-05T17:08:40.617Z,20.85
2024-01-05T17:11:30.167Z,19.20
2024-01-05T17:14:15.702Z,21.73
2024-01-05T17:17:01.782Z,21.50
2024-01-05T17:19:47.452Z,15.85
2024-01-05T17:22:33.922Z,23.52
2024-01-05T17:25:19.449Z,17.73
2024-01-05T17:28:06.022Z,18.27
2024-01-05T17:30:51.642Z,13.50
2024-01-05T17:33:37.704Z,19.70
2024-01-05T17:36:28.642Z,17.25
2024-01-05T17:39:14.562Z,17.80
2024-01-05T17:42:03.247Z,18.95
2024-01-05T17:44:49.439Z,18.42
2024-01-05T17:47:35.477Z,19.15
2024-01-05T17:50:22.741Z,18.38
2024-01-05T17:53:08.796Z,15.95
2024-01-05T17:55:54.463Z,20.38
2024-01-05T17:58:40.518Z,18.90
2024-01-05T18:01:28.194Z,17.45
2024-01-05T18:04:16.442Z,20.60
2024-01-05T18:07:05.010Z,21.00
2024-01-05T18:09:51.218Z,18.90
2024-01-05T18:12:37.502Z,18.95
2024-01-05T18:15:23.221Z,14.32
2024-01-05T18:18:09.929Z,16.25
2024-01-05T18:20:56.075Z,19.95
2024-01-05T18:23:41.775Z,20.90
2024-01-05T18:26:28.730Z,19.02
2024-01-05T18:29:22.017Z,16.48
2024-01-05T18:32:14.363Z,18.17
2024-01-05T18:35:02.422Z,17.58
2024-01-05T18:37:48.560Z,18.55
2024-01-05T18:40:34.234Z,28.75
2024-01-05T18:43:20.202Z,22.15
2024-01-05T18:46:06.135Z,12.95
2024-01-05T18:48:52.104Z,16.08
2024-01-05T18:51:38.556Z,14.25
2024-01-05T18:54:25.291Z,16.27
2024-01-05T18:57:11.435Z,19.23
2024-01-05T18:59:57.515Z,17.08
2024-01-05T19:02:43.197Z,11.82
2024-01-05T19:05:31.444Z,15.00
2024-01-05T19:08:18.087Z,11.30
2024-01-05T19:11:05.151Z,12.45
2024-01-05T19:13:50.594Z,13.73
2024-01-05T19:16:41.447Z,10.32
2024-01-05T19:19:29.723Z,11.95
2024-01-05T19:22:15.726Z,15.55
2024-01-05T19:25:01.804Z,18.80
2024-01-05T19:27:47.722Z,14.70
2024-01-05T19:30:33.382Z,11.40
2024-01-05T19:33:19.670Z,13.63
2024-01-05T19:36:11.859Z,12.82
2024-01-05T19:38:59.512Z,12.23
2024-01-05T19:41:46.250Z,14.60
2024-01-05T19:44:32.129Z,12.50
2024-01-05T19:47:17.758Z,13.70
2024-01-05T19:50:03.618Z,17.75
2024-01-05T19:52:49.783Z,16.33
2024-01-05T19:55:35.647Z,14.18
2024-01-05T19:58:21.468Z,17.17
2024-01-05T20:01:07.470Z,20.33
2024-01-05T20:03:53.284Z,22.98
2024-01-05T20:06:39.863Z,10.90
2024-01-05T20:09:25.277Z,16.67
2024-01-05T20:12:17.984Z,20.88
2024-01-05T20:15:04.757Z,15.48
2024-01-05T20:17:51.158Z,17.27
2024-01-05T20:20:36.883Z,15.70
2024-01-05T20:23:22.568Z,15.55
2024-01-05T20:26:21.428Z,18.77
2024-01-05T20:29:07.364Z,13.35
2024-01-05T20:31:55.460Z,17.85
2024-01-05T20:34:41.538Z,12.18
2024-01-05T20:37:27.404Z,13.82
2024-01-05T20:40:12.982Z,13.75
2024-01-05T20:42:59.938Z,14.55
2024-01-05T20:45:45.602Z,14.50
2024-01-05T20:48:32.013Z,11.85
2024-01-05T20:51:21.489Z,12.45
2024-01-05T20:54:07.946Z,13.75
2024-01-05T20:56:53.853Z,11.52
2024-01-05T20:59:44.707Z,12.23
2024-01-05T21:02:30.457Z,14.32
2024-01-05T21:05:16.526Z,18.50
2024-01-05T21:08:05.186Z,10.98
2024-01-05T21:10:51.115Z,16.10
2024-01-05T21:13:36.780Z,15.73
2024-01-05T21:16:22.245Z,25.27
2024-01-05T21:19:10.167Z,19.35
2024-01-05T21:21:57.042Z,22.10
2024-01-05T21:24:44.479Z,18.75
2024-01-05T21:27:30.447Z,19.30
2024-01-05T21:30:18.301Z,19.15
2024-01-05T21:33:06.263Z,14.00
2024-01-05T21:35:54.309Z,14.98
2024-01-05T21:38:40.026Z,17.70
2024-01-05T21:41:25.822Z,16.48
2024-01-05T21:44:11.205Z,19.48
2024-01-05T21:46:56.826Z,15.68
2024-01-05T21:49:42.618Z,18.10
2024-01-05T21:52:28.304Z,17.85
2024-01-05T21:55:14.561Z,27.33
2024-01-05T21:58:00.180Z,26.98
2024-01-05T22:00:46.450Z,28.27
2024-01-05T22:03:33.404Z,20.63
2024-01-05T22:06:19.819Z,19.88
2024-01-05T22:09:12.604Z,33.08
2024-01-05T22:11:58.685Z,31.42
2024-01-05T22:14:44.983Z,17.38
2024-01-05T22:17:30.889Z,27.75
2024-01-05T22:20:17.051Z,23.23
2024-01-05T22:23:03.667Z,31.02
2024-01-05T22:25:49.449Z,23.55
2024-01-05T22:28:38.301Z,24.05
2024-01-05T22:31:33.922Z,18.23
2024-01-05T22:34:19.836Z,21.02
2024-01-05T22:37:07.917Z,19.23
2024-01-05T22:39:53.894Z,21.48
2024-01-05T22:42:39.485Z,20.85
2024-01-05T22:45:25.532Z,16.73
2024-01-05T22:48:12.138Z,20.20
2024-01-05T22:50:57.735Z,19.50
2024-01-05T22:53:43.923Z,23.10
2024-01-05T22:56:29.642Z,17.25
2024-01-05T22:59:16.167Z,15.80
2024-01-05T23:02:02.174Z,21.20
2024-01-05T23:04:48.006Z,15.25
2024-01-05T23:07:34.338Z,18.33
2024-01-05T23:10:20.830Z,24.92
2024-01-05T23:13:08.663Z,22.90
2024-01-05T23:15:56.398Z,20.00
2024-01-05T23:18:47.520Z,16.98
2024-01-05T23:21:34.192Z,13.68
2024-01-05T23:24:19.845Z,13.07
2024-01-05T23:27:05.713Z,17.15
2024-01-05T23:29:53.577Z,13.02
2024-01-05T23:32:39.637Z,18.90
2024-01-05T23:35:27.391Z,15.30
2024-01-05T23:38:13.554Z,12.77
2024-01-05T23:40:59.260Z,19.85
2024-01-05T23:43:44.694Z,17.45
2024-01-05T23:46:30.882Z,13.65
2024-01-05T23:49:16.853Z,16.27
2024-01-05T23:52:02.927Z,13.48
2024-01-05T23:54:49.332Z,16.42
2024-01-05T23:57:35.142Z,13.93
